Time;durP1;ratioP1;P1;durP2;ratioP2;P2;SDS_P1;SDS_P2;PMS_P1;PMS_P2;Temp;Humidity;BMP_temperature;BMP_pressure;BME280_temperature;BME280_humidity;BME280_pressure;Samples;Min_cycle;Max_cycle;Signal;HPM_P1;HPM_P2
2023/01/13 00:01:25;;;;;;;1999.90;999.90;;;29.40;93.00;;;;;;5051801;28;20087;-75
2023/01/13 00:03:53;;;;;;;1999.90;999.90;;;29.20;92.40;;;;;;5050193;28;20395;-73
2023/01/13 00:06:24;;;;;;;1999.90;999.90;;;29.00;92.70;;;;;;5052405;28;20548;-73
2023/01/13 00:08:53;;;;;;;1999.90;999.90;;;28.90;92.90;;;;;;5051125;28;20470;-73
2023/01/13 00:11:22;;;;;;;1999.90;999.90;;;28.80;93.70;;;;;;5050331;28;20029;-73
2023/01/13 00:13:49;;;;;;;1999.90;999.90;;;28.90;93.20;;;;;;5049652;28;20025;-73
2023/01/13 00:16:17;;;;;;;1999.90;999.90;;;28.80;92.90;;;;;;5042741;28;20052;-72
2023/01/13 00:18:46;;;;;;;1999.90;999.90;;;28.80;93.30;;;;;;5045151;28;20083;-75
2023/01/13 00:21:16;;;;;;;1999.90;999.90;;;28.80;93.20;;;;;;5054324;28;20033;-74
2023/01/13 00:23:44;;;;;;;1999.90;999.90;;;29.20;93.90;;;;;;5054264;28;20071;-74
2023/01/13 00:26:15;;;;;;;1999.90;999.90;;;29.70;93.40;;;;;;5048465;28;20091;-74
2023/01/13 00:28:43;;;;;;;1999.90;999.90;;;29.70;92.30;;;;;;5051476;28;20115;-71
2023/01/13 00:31:16;;;;;;;1999.90;999.90;;;29.40;92.70;;;;;;5049701;28;20099;-72
2023/01/13 00:33:43;;;;;;;1999.90;999.90;;;28.90;92.90;;;;;;5050361;28;21482;-71
2023/01/13 00:36:15;;;;;;;1999.90;999.90;;;28.70;93.30;;;;;;5049760;28;20036;-73
2023/01/13 00:38:43;;;;;;;1999.90;999.90;;;28.50;93.40;;;;;;5048098;28;20032;-74
2023/01/13 00:41:13;;;;;;;1999.90;999.90;;;28.50;93.30;;;;;;5048327;28;20025;-70
2023/01/13 00:43:41;;;;;;;1999.90;999.90;;;28.70;93.30;;;;;;5044663;28;20058;-71
2023/01/13 00:46:12;;;;;;;1999.90;999.90;;;28.80;93.30;;;;;;5050645;28;20056;-73
2023/01/13 00:48:41;;;;;;;1999.90;999.90;;;29.10;93.20;;;;;;5050227;28;20040;-71
2023/01/13 00:51:16;;;;;;;1999.90;999.90;;;29.60;93.00;;;;;;5047645;28;20025;-71
2023/01/13 00:53:46;;;;;;;1999.90;999.90;;;30.30;92.30;;;;;;5052656;28;20056;-71
2023/01/13 00:56:16;;;;;;;1999.90;999.90;;;30.70;91.10;;;;;;5048143;28;20071;-71
2023/01/13 00:58:45;;;;;;;1999.90;999.90;;;30.90;91.40;;;;;;5050882;28;20055;-71
2023/01/13 01:01:23;;;;;;;1999.90;999.90;;;30.90;90.90;;;;;;5047259;28;20050;-73
2023/01/13 01:03:53;;;;;;;1999.90;999.90;;;31.30;91.60;;;;;;5047984;28;20112;-75
2023/01/13 01:06:23;;;;;;;1999.90;999.90;;;31.60;90.90;;;;;;5052314;28;20024;-73
2023/01/13 01:08:52;;;;;;;1999.90;999.90;;;30.90;90.70;;;;;;5047660;28;20041;-75
2023/01/13 01:11:27;;;;;;;1999.90;999.90;;;30.90;91.00;;;;;;5049722;28;20043;-72
2023/01/13 01:13:57;;;;;;;1999.90;999.90;;;30.60;90.90;;;;;;5046499;28;20040;-73
2023/01/13 01:16:25;;;;;;;1999.90;999.90;;;30.40;91.30;;;;;;5044834;28;20045;-72
2023/01/13 01:18:54;;;;;;;1999.90;999.90;;;30.20;91.50;;;;;;5048207;28;20079;-72
2023/01/13 01:21:24;;;;;;;1999.90;999.90;;;29.90;91.70;;;;;;5049363;28;20033;-72
2023/01/13 01:23:52;;;;;;;1999.90;999.90;;;29.40;91.90;;;;;;5051173;28;20060;-72
2023/01/13 01:26:21;;;;;;;1999.90;999.90;;;29.10;92.10;;;;;;5050040;28;20102;-72
2023/01/13 01:28:49;;;;;;;1999.90;999.90;;;29.00;92.70;;;;;;5047630;28;20032;-72
2023/01/13 01:31:31;;;;;;;1999.90;999.90;;;29.00;92.70;;;;;;5052518;28;20118;-71
2023/01/13 01:34:00;;;;;;;1999.90;999.90;;;29.10;92.50;;;;;;5047285;28;20119;-71
2023/01/13 01:36:32;;;;;;;1999.90;999.90;;;29.30;92.10;;;;;;5045700;28;20139;-72
2023/01/13 01:39:01;;;;;;;1999.90;999.90;;;29.20;91.80;;;;;;5043492;28;20032;-71
2023/01/13 01:41:30;;;;;;;1999.90;999.90;;;28.80;92.20;;;;;;5050609;28;20040;-72
2023/01/13 01:44:01;;;;;;;1999.90;999.90;;;28.80;92.80;;;;;;5052210;28;20086;-73
2023/01/13 01:46:38;;;;;;;1999.90;999.90;;;29.30;94.00;;;;;;5045405;28;20027;-73
2023/01/13 01:49:23;;;;;;;1999.90;999.90;;;29.70;93.00;;;;;;5048409;28;20828;-72
2023/01/13 01:52:01;;;;;;;1999.90;999.90;;;30.00;92.20;;;;;;5048692;28;20048;-72
2023/01/13 01:54:31;;;;;;;1999.90;999.90;;;30.30;91.40;;;;;;5053725;28;20021;-72
2023/01/13 01:56:59;;;;;;;1999.90;999.90;;;30.10;90.80;;;;;;5050768;28;20036;-72
2023/01/13 01:59:31;;;;;;;1999.90;999.90;;;29.60;91.50;;;;;;5049202;28;20017;-72
2023/01/13 02:01:59;;;;;;;1999.90;999.90;;;29.50;91.80;;;;;;5049879;28;20029;-73
2023/01/13 02:04:33;;;;;;;1999.90;999.90;;;30.00;92.20;;;;;;5048344;28;20025;-72
2023/01/13 02:07:02;;;;;;;1999.90;999.90;;;30.20;91.50;;;;;;5050538;28;20029;-72
2023/01/13 02:09:30;;;;;;;1999.90;999.90;;;30.40;91.70;;;;;;5045667;28;20483;-73
2023/01/13 02:14:43;;;;;;;;;;;30.50;91.40;;;;;;5047739;28;20082;-73
2023/01/13 02:17:19;;;;;;;1999.90;999.90;;;30.70;90.80;;;;;;5049188;28;19917;-72
2023/01/13 02:20:08;;;;;;;1999.90;999.90;;;30.70;91.00;;;;;;5051516;28;20033;-72
2023/01/13 02:22:51;;;;;;;1999.90;999.90;;;30.60;90.80;;;;;;5044905;28;20890;-72
2023/01/13 02:25:33;;;;;;;1999.90;999.90;;;30.50;91.10;;;;;;5049806;28;20017;-73
2023/01/13 02:28:07;;;;;;;1999.90;999.90;;;30.50;90.60;;;;;;5046555;28;20036;-74
2023/01/13 02:33:53;;;;;;;1999.90;999.90;;;30.90;91.10;;;;;;5047445;28;20043;-73
2023/01/13 02:36:29;;;;;;;1999.90;999.90;;;31.10;90.70;;;;;;5048551;28;20032;-72
2023/01/13 02:39:14;;;;;;;1999.90;999.90;;;30.90;91.10;;;;;;5047239;28;20135;-72
2023/01/13 02:45:12;;;;;;;1999.90;999.90;;;31.00;90.80;;;;;;5034672;28;20040;-73
2023/01/13 02:47:42;;;;;;;1999.90;999.90;;;30.80;91.20;;;;;;5058163;28;20402;-73
2023/01/13 02:50:21;;;;;;;1999.90;999.90;;;30.60;90.90;;;;;;5054655;28;20029;-72
2023/01/13 02:52:55;;;;;;;1999.90;999.90;;;30.40;91.10;;;;;;5045815;28;20041;-73
2023/01/13 02:55:36;;;;;;;1999.90;999.90;;;30.40;91.40;;;;;;5049904;28;21640;-72
2023/01/13 02:58:07;;;;;;;1999.90;999.90;;;30.40;91.20;;;;;;5051167;28;20041;-74
2023/01/13 03:00:37;;;;;;;1999.90;999.90;;;30.20;91.30;;;;;;5048317;28;20115;-72
2023/01/13 03:03:04;;;;;;;1999.90;999.90;;;30.10;91.40;;;;;;5047536;28;20037;-72
2023/01/13 03:05:36;;;;;;;1999.90;999.90;;;29.90;91.70;;;;;;5053205;28;20024;-72
2023/01/13 03:08:47;;;;;;;1999.90;999.90;;;29.80;92.10;;;;;;5049010;28;20588;-73
2023/01/13 03:11:18;;;;;;;1999.90;999.90;;;30.00;91.90;;;;;;5020864;28;20048;-73
2023/01/13 03:14:12;;;;;;;1999.90;999.90;;;30.20;92.00;;;;;;5048639;28;20033;-73
2023/01/13 03:17:05;;;;;;;1999.90;999.90;;;30.70;91.90;;;;;;5051757;28;20434;-73
2023/01/13 03:19:57;;;;;;;1999.90;999.90;;;31.20;91.60;;;;;;5043844;28;20030;-73
2023/01/13 03:22:31;;;;;;;1999.90;999.90;;;31.50;90.70;;;;;;5048129;28;20120;-74
2023/01/13 03:25:13;;;;;;;1999.90;999.90;;;31.90;90.30;;;;;;5047030;28;20030;-72
2023/01/13 03:27:58;;;;;;;1999.90;999.90;;;32.00;90.90;;;;;;5048416;28;20026;-72
2023/01/13 03:30:47;;;;;;;1999.90;999.90;;;32.00;90.80;;;;;;5048040;28;20037;-71
2023/01/13 03:33:25;;;;;;;1999.90;999.90;;;32.00;90.70;;;;;;5050639;28;20040;-72
2023/01/13 03:35:58;;;;;;;1999.90;999.90;;;32.00;90.80;;;;;;5050313;28;20047;-73
2023/01/13 03:38:50;;;;;;;1999.90;999.90;;;32.00;90.60;;;;;;5051112;28;20052;-73
2023/01/13 03:41:32;;;;;;;1999.90;999.90;;;32.50;91.00;;;;;;5050233;28;20037;-73
2023/01/13 03:44:26;;;;;;;1999.90;999.90;;;32.80;90.50;;;;;;5048888;28;20410;-72
2023/01/13 03:47:03;;;;;;;1999.90;999.90;;;32.70;90.10;;;;;;5048741;28;20037;-72
2023/01/13 03:49:44;;;;;;;1999.90;999.90;;;32.50;90.80;;;;;;5046971;28;20090;-72
2023/01/13 03:52:21;;;;;;;1999.90;999.90;;;32.20;90.20;;;;;;5054014;28;20028;-73
2023/01/13 03:54:56;;;;;;;1999.90;999.90;;;32.10;90.60;;;;;;5048755;28;20040;-73
2023/01/13 03:57:30;;;;;;;1999.90;999.90;;;31.90;90.70;;;;;;5048301;28;20527;-72
2023/01/13 04:00:02;;;;;;;1999.90;999.90;;;31.80;91.10;;;;;;5050198;28;20083;-71
2023/01/13 04:02:43;;;;;;;1999.90;999.90;;;31.60;91.00;;;;;;5049254;28;20025;-73
2023/01/13 04:05:11;;;;;;;1999.90;999.90;;;31.20;91.20;;;;;;5046896;28;20091;-73
2023/01/13 04:08:09;;;;;;;1999.90;999.90;;;30.80;91.50;;;;;;5050691;28;20360;-74
2023/01/13 04:11:04;;;;;;;1999.90;999.90;;;30.60;91.70;;;;;;5048930;28;20040;-72
2023/01/13 04:13:38;;;;;;;1999.90;999.90;;;30.60;92.20;;;;;;5048471;28;20082;-73
2023/01/13 04:16:08;;;;;;;1999.90;999.90;;;30.70;92.10;;;;;;5049888;28;20383;-72
2023/01/13 04:18:38;;;;;;;1999.90;999.90;;;30.80;91.40;;;;;;5051152;28;20033;-73
2023/01/13 04:21:06;;;;;;;1999.90;999.90;;;30.90;91.60;;;;;;5049447;28;20028;-72
2023/01/13 04:23:34;;;;;;;1999.90;999.90;;;31.00;91.80;;;;;;5050763;28;20024;-73
2023/01/13 04:26:01;;;;;;;1999.90;999.90;;;31.00;92.20;;;;;;5049966;28;20037;-72
2023/01/13 04:28:28;;;;;;;1999.90;999.90;;;31.00;92.10;;;;;;5046198;28;20096;-73
2023/01/13 04:30:56;;;;;;;1999.90;999.90;;;31.00;92.30;;;;;;5049274;28;20091;-72
2023/01/13 04:33:23;;;;;;;1999.90;999.90;;;31.10;92.00;;;;;;5046771;28;20045;-73
2023/01/13 04:35:51;;;;;;;1999.90;999.90;;;31.30;91.70;;;;;;5049871;28;20067;-73
2023/01/13 04:38:28;;;;;;;1999.90;999.90;;;31.30;91.60;;;;;;5047720;28;20029;-71
2023/01/13 04:40:56;;;;;;;1999.90;999.90;;;31.30;91.50;;;;;;5043632;28;20474;-72
2023/01/13 04:43:23;;;;;;;1999.90;999.90;;;31.30;91.60;;;;;;5046669;28;20551;-72
2023/01/13 04:45:50;;;;;;;1999.90;999.90;;;31.20;90.90;;;;;;5047664;28;20041;-71
2023/01/13 04:48:18;;;;;;;1999.90;999.90;;;30.90;91.30;;;;;;5045616;28;20028;-73
2023/01/13 04:50:45;;;;;;;1999.90;999.90;;;30.80;91.60;;;;;;5048281;28;20067;-72
2023/01/13 04:53:13;;;;;;;1999.90;999.90;;;30.50;92.20;;;;;;5047234;28;20496;-73
2023/01/13 04:55:40;;;;;;;1999.90;999.90;;;30.40;91.90;;;;;;5044905;28;20029;-73
2023/01/13 04:58:09;;;;;;;1999.90;999.90;;;30.50;92.20;;;;;;5045980;28;20021;-72
2023/01/13 05:00:37;;;;;;;1999.90;999.90;;;30.80;92.40;;;;;;5059158;28;20364;-72
2023/01/13 05:03:05;;;;;;;1999.90;999.90;;;31.00;92.20;;;;;;5048141;28;20036;-73
2023/01/13 05:05:32;;;;;;;1999.90;999.90;;;31.00;92.20;;;;;;5047777;28;20437;-73
2023/01/13 05:08:00;;;;;;;1999.90;999.90;;;30.80;92.30;;;;;;5047322;28;20025;-73
2023/01/13 05:10:27;;;;;;;1999.90;999.90;;;30.50;92.70;;;;;;5045875;28;20068;-72
2023/01/13 05:18:27;;;;;;;1999.90;999.90;;;30.00;93.20;;;;;;5045745;28;20039;-72
2023/01/13 05:20:54;;;;;;;1999.90;999.90;;;30.10;93.20;;;;;;5042305;28;20059;-72
2023/01/13 05:26:07;;;;;;;1999.90;999.90;;;30.20;93.30;;;;;;5047587;28;20040;-74
2023/01/13 05:28:35;;;;;;;1999.90;999.90;;;30.20;93.30;;;;;;5048571;28;20465;-72
2023/01/13 05:31:02;;;;;;;1999.90;999.90;;;30.40;93.30;;;;;;5047430;28;20060;-72
2023/01/13 05:33:30;;;;;;;1999.90;999.90;;;30.50;93.10;;;;;;5045707;28;20136;-72
2023/01/13 05:36:02;;;;;;;1999.90;999.90;;;30.70;93.10;;;;;;5048827;28;20027;-72
2023/01/13 05:38:30;;;;;;;1999.90;999.90;;;30.60;93.00;;;;;;5047057;28;20039;-72
2023/01/13 05:43:45;;;;;;;1999.90;999.90;;;30.70;93.00;;;;;;5051270;28;20086;-72
2023/01/13 05:46:13;;;;;;;1999.90;999.90;;;30.70;93.10;;;;;;5049679;28;20025;-71
2023/01/13 05:48:42;;;;;;;1999.90;999.90;;;30.50;93.30;;;;;;5044876;28;20066;-71
2023/01/13 05:51:11;;;;;;;1999.90;999.90;;;30.30;93.40;;;;;;5048510;28;20087;-71
2023/01/13 05:53:39;;;;;;;1999.90;999.90;;;30.10;93.70;;;;;;5046997;28;20020;-71
2023/01/13 05:56:08;;;;;;;1999.90;999.90;;;29.90;93.90;;;;;;5042133;28;20032;-72
2023/01/13 05:58:35;;;;;;;1999.90;999.90;;;29.80;93.80;;;;;;5047765;28;20372;-70
2023/01/13 06:01:06;;;;;;;1999.90;999.90;;;29.70;93.70;;;;;;5047120;28;20364;-70
2023/01/13 06:03:34;;;;;;;1999.90;999.90;;;29.40;93.90;;;;;;5042696;28;20029;-71
2023/01/13 06:06:02;;;;;;;1999.90;999.90;;;29.10;94.30;;;;;;5049849;28;20471;-71
2023/01/13 06:08:31;;;;;;;1999.90;999.90;;;29.20;94.50;;;;;;5045256;28;20120;-72
2023/01/13 06:10:58;;;;;;;1999.90;999.90;;;29.10;94.40;;;;;;5044499;28;20049;-72
2023/01/13 06:13:26;;;;;;;1999.90;999.90;;;29.10;94.50;;;;;;5039568;28;20066;-72
2023/01/13 06:15:58;;;;;;;1999.90;999.90;;;29.10;94.40;;;;;;5050657;28;20034;-71
2023/01/13 06:18:26;;;;;;;1999.90;999.90;;;29.20;94.40;;;;;;5047388;28;20047;-72
2023/01/13 06:20:57;;;;;;;1999.90;999.90;;;29.10;94.40;;;;;;5049622;28;20029;-72
2023/01/13 06:23:24;;;;;;;1999.90;999.90;;;28.90;94.80;;;;;;5045401;28;20079;-72
2023/01/13 06:26:09;;;;;;;1999.90;999.90;;;28.80;94.80;;;;;;5041873;28;20031;-73
2023/01/13 06:28:37;;;;;;;1999.90;999.90;;;28.70;94.90;;;;;;5046207;28;20136;-74
2023/01/13 06:31:07;;;;;;;1999.90;999.90;;;28.60;95.00;;;;;;5053438;28;20492;-73
2023/01/13 06:33:43;;;;;;;1999.90;999.90;;;28.50;94.90;;;;;;5049597;28;20039;-74
2023/01/13 06:36:14;;;;;;;1999.90;999.90;;;28.40;95.00;;;;;;5047438;28;20135;-73
2023/01/13 06:38:46;;;;;;;1999.90;999.90;;;28.20;95.10;;;;;;5050671;28;21771;-74
2023/01/13 06:41:13;;;;;;;1999.90;999.90;;;28.10;95.20;;;;;;5051300;28;20021;-72
2023/01/13 06:43:41;;;;;;;1999.90;999.90;;;27.90;95.30;;;;;;5054736;28;20445;-72
2023/01/13 06:46:08;;;;;;;1999.90;999.90;;;27.70;95.60;;;;;;5048794;28;20107;-73
2023/01/13 06:48:36;;;;;;;1999.90;999.90;;;27.70;95.70;;;;;;5049493;28;20037;-73
2023/01/13 06:51:04;;;;;;;1999.90;999.90;;;27.70;95.60;;;;;;5048706;28;20074;-73
2023/01/13 06:53:32;;;;;;;1999.90;999.90;;;27.50;95.90;;;;;;5050559;28;20495;-74
2023/01/13 06:55:59;;;;;;;1999.90;999.90;;;27.40;96.30;;;;;;5051542;28;20029;-73
2023/01/13 06:58:26;;;;;;;1999.90;999.90;;;27.40;96.40;;;;;;5051164;28;20033;-73
2023/01/13 07:00:54;;;;;;;1999.90;999.90;;;27.40;96.40;;;;;;5049864;28;20037;-72
2023/01/13 07:03:21;;;;;;;1999.90;999.90;;;27.50;96.50;;;;;;5049595;28;20028;-71
2023/01/13 07:05:55;;;;;;;1999.90;999.90;;;27.30;96.60;;;;;;5050936;28;20115;-72
2023/01/13 07:08:24;;;;;;;1999.90;999.90;;;27.20;96.90;;;;;;5049779;28;20951;-72
2023/01/13 07:10:53;;;;;;;1999.90;999.90;;;27.20;97.00;;;;;;5053219;28;20513;-73
2023/01/13 07:16:08;;;;;;;1999.90;999.90;;;27.10;97.00;;;;;;5050965;28;20036;-72
2023/01/13 07:18:35;;;;;;;1999.90;999.90;;;27.10;97.20;;;;;;5052776;28;20071;-72
2023/01/13 07:21:06;;;;;;;1999.90;999.90;;;27.10;97.40;;;;;;5053415;28;20032;-73
2023/01/13 07:23:35;;;;;;;1999.90;999.90;;;27.00;97.60;;;;;;5050453;28;20021;-73
2023/01/13 07:26:03;;;;;;;1999.90;999.90;;;27.00;97.80;;;;;;5052241;28;20025;-74
2023/01/13 07:28:32;;;;;;;1999.90;999.90;;;27.00;97.70;;;;;;5055863;28;20850;-75
2023/01/13 07:31:16;;;;;;;1999.90;999.90;;;27.10;97.50;;;;;;5052064;28;20037;-73
2023/01/13 07:33:44;;;;;;;1999.90;999.90;;;26.90;97.70;;;;;;5049143;28;20067;-72
2023/01/13 07:36:12;;;;;;;1999.90;999.90;;;26.90;97.70;;;;;;5052168;28;20413;-69
2023/01/13 07:38:39;;;;;;;1999.90;999.90;;;26.80;97.70;;;;;;5047758;28;20041;-70
2023/01/13 07:43:56;;;;;;;1999.90;999.90;;;26.70;98.00;;;;;;5046860;28;20085;-71
2023/01/13 07:46:23;;;;;;;1999.90;999.90;;;26.70;98.00;;;;;;5053486;28;20408;-71
2023/01/13 07:48:51;;;;;;;1999.90;999.90;;;26.70;98.10;;;;;;5050033;28;20534;-71
2023/01/13 07:51:18;;;;;;;1999.90;999.90;;;26.60;98.20;;;;;;5051181;28;20052;-72
2023/01/13 07:53:45;;;;;;;1999.90;999.90;;;26.60;98.40;;;;;;5049108;28;20037;-72
2023/01/13 07:56:13;;;;;;;1999.90;999.90;;;26.50;98.60;;;;;;5050741;28;20021;-70
2023/01/13 07:58:40;;;;;;;1999.90;999.90;;;26.40;98.70;;;;;;5047900;28;20037;-72
2023/01/13 08:01:15;;;;;;;1999.90;999.90;;;26.30;99.10;;;;;;5049450;28;20066;-71
2023/01/13 08:03:43;;;;;;;1999.90;999.90;;;26.20;99.10;;;;;;5050115;28;20040;-72
2023/01/13 08:06:12;;;;;;;1999.90;999.90;;;26.20;99.20;;;;;;5054054;28;20127;-71
2023/01/13 08:08:41;;;;;;;1999.90;999.90;;;26.30;99.00;;;;;;5047646;28;20383;-71
2023/01/13 08:11:09;;;;;;;1999.90;999.90;;;26.30;98.90;;;;;;5047800;28;20028;-73
2023/01/13 08:13:36;;;;;;;1999.90;999.90;;;26.10;98.90;;;;;;5050813;28;20055;-71
2023/01/13 08:16:11;;;;;;;1999.90;999.90;;;26.00;98.80;;;;;;5046305;28;20059;-71
2023/01/13 08:18:40;;;;;;;1999.90;999.90;;;25.90;99.10;;;;;;5051272;28;20510;-72
2023/01/13 08:21:15;;;;;;;1999.90;999.90;;;25.70;99.40;;;;;;5047011;28;20484;-72
2023/01/13 08:23:43;;;;;;;;;;;25.80;99.50;;;;;;5065394;28;20033;-73
2023/01/13 08:26:14;;;;;;;1999.90;999.90;;;25.70;99.70;;;;;;5050092;28;19916;-73
2023/01/13 08:28:42;;;;;;;1999.90;999.90;;;25.80;99.90;;;;;;5047803;28;20547;-74
2023/01/13 08:31:22;;;;;;;1999.90;999.90;;;25.80;99.90;;;;;;5048794;28;20132;-72
2023/01/13 08:33:49;;;;;;;1999.90;999.90;;;25.80;99.90;;;;;;5048622;28;20025;-72
2023/01/13 08:36:17;;;;;;;1999.90;999.90;;;25.80;99.90;;;;;;5051175;28;20494;-72
2023/01/13 08:38:45;;;;;;;1999.90;999.90;;;25.80;99.90;;;;;;5049102;28;20118;-72
2023/01/13 08:41:53;;;;;;;1999.90;999.90;;;25.80;99.90;;;;;;5051123;28;20032;-71
2023/01/13 08:44:02;;;;;;;1999.90;999.90;;;25.80;99.90;;;;;;5048261;28;20045;-70
2023/01/13 08:46:30;;;;;;;1999.90;999.90;;;25.50;99.90;;;;;;5050862;28;20103;-73
2023/01/13 08:48:57;;;;;;;1999.90;999.90;;;25.30;99.90;;;;;;5048038;28;20028;-71
2023/01/13 08:51:24;;;;;;;1999.90;999.90;;;25.20;99.90;;;;;;5044117;28;20021;-70
2023/01/13 08:53:52;;;;;;;1999.90;999.90;;;25.00;99.90;;;;;;5043733;28;20037;-70
2023/01/13 08:56:19;;;;;;;1999.90;999.90;;;24.90;99.90;;;;;;5050359;28;20147;-71
2023/01/13 08:58:46;;;;;;;1999.90;999.90;;;24.90;99.90;;;;;;5046294;28;20087;-69
2023/01/13 09:01:18;;;;;;;1999.90;999.90;;;24.70;99.90;;;;;;5052155;28;20035;-69
2023/01/13 09:03:46;;;;;;;1999.90;999.90;;;24.70;99.90;;;;;;5054455;28;20033;-70
2023/01/13 09:06:13;;;;;;;1999.90;999.90;;;24.80;99.90;;;;;;5048379;28;20024;-71
2023/01/13 09:08:41;;;;;;;1999.90;999.90;;;24.80;99.90;;;;;;5059263;28;20052;-69
2023/01/13 09:14:03;;;;;;;1999.90;999.90;;;24.70;99.90;;;;;;5048729;28;20051;-70
2023/01/13 09:16:30;;;;;;;1999.90;999.90;;;24.60;99.90;;;;;;5052752;28;20021;-71
2023/01/13 09:18:57;;;;;;;1999.90;999.90;;;24.60;99.90;;;;;;5047393;28;20029;-70
2023/01/13 09:21:25;;;;;;;1999.90;999.90;;;24.60;99.90;;;;;;5063044;28;20142;-70
2023/01/13 09:23:53;;;;;;;1999.90;999.90;;;24.50;99.90;;;;;;5052541;28;20033;-71
2023/01/13 09:26:21;;;;;;;1999.90;999.90;;;24.50;99.90;;;;;;5052538;28;20099;-70
2023/01/13 09:28:48;;;;;;;1999.90;999.90;;;24.50;99.90;;;;;;5046962;28;20086;-71
2023/01/13 09:31:16;;;;;;;1999.90;999.90;;;24.50;99.90;;;;;;5046483;28;20063;-69
2023/01/13 09:36:28;;;;;;;1999.90;999.90;;;24.40;99.90;;;;;;5067252;28;20031;-71
2023/01/13 09:38:55;;;;;;;1999.90;999.90;;;24.40;99.90;;;;;;5048857;28;20123;-70
2023/01/13 09:44:28;;;;;;;1999.90;999.90;;;24.40;99.90;;;;;;5056963;28;20040;-72
2023/01/13 09:47:02;;;;;;;1999.90;999.90;;;24.30;99.90;;;;;;5062888;28;20035;-71
2023/01/13 09:49:41;;;;;;;1999.90;999.90;;;24.20;99.90;;;;;;5052589;28;20122;-73
2023/01/13 09:52:22;;;;;;;1999.90;999.90;;;24.20;99.90;;;;;;5038012;28;20057;-71
2023/01/13 09:55:12;;;;;;;1999.90;999.90;;;24.20;99.90;;;;;;5048836;28;20017;-71
2023/01/13 09:57:44;;;;;;;1999.90;999.90;;;24.20;99.90;;;;;;5065491;28;20029;-71
2023/01/13 10:00:13;;;;;;;1999.90;999.90;;;24.10;99.90;;;;;;5055749;28;20060;-71
2023/01/13 10:03:05;;;;;;;1999.90;999.90;;;24.10;99.90;;;;;;5055826;28;20074;-71
2023/01/13 10:05:57;;;;;;;1999.90;999.90;;;24.00;99.90;;;;;;5034665;28;20379;-71
2023/01/13 10:08:35;;;;;;;1999.90;999.90;;;24.00;99.90;;;;;;5058893;28;20063;-73
2023/01/13 10:14:06;;;;;;;1999.90;999.90;;;24.00;99.90;;;;;;5056258;28;20056;-73
2023/01/13 10:17:00;;;;;;;1999.90;999.90;;;24.00;99.90;;;;;;5054800;28;20021;-73
2023/01/13 10:20:02;;;;;;;1999.90;999.90;;;24.00;99.90;;;;;;5059233;28;20029;-76
2023/01/13 10:22:44;;;;;;;1999.90;999.90;;;24.00;99.90;;;;;;5062358;28;20021;-73
2023/01/13 10:25:24;;;;;;;1999.90;999.90;;;24.00;99.90;;;;;;5060130;28;20043;-74
2023/01/13 10:27:55;;;;;;;1999.90;999.90;;;24.00;99.90;;;;;;5051710;28;20024;-74
2023/01/13 10:30:30;;;;;;;1999.90;999.90;;;23.90;99.90;;;;;;5051570;28;20395;-76
2023/01/13 10:33:05;;;;;;;1999.90;999.90;;;23.90;99.90;;;;;;5052158;28;20041;-73
2023/01/13 10:35:52;;;;;;;1999.90;999.90;;;23.90;99.90;;;;;;5053451;28;20029;-74
2023/01/13 10:38:37;;;;;;;1999.90;999.90;;;23.90;99.90;;;;;;5055645;28;20078;-72
2023/01/13 10:41:15;;;;;;;1999.90;999.90;;;23.80;99.90;;;;;;5066477;28;20025;-72
2023/01/13 10:44:00;;;;;;;1999.90;999.90;;;23.80;99.90;;;;;;5057090;28;20049;-73
2023/01/13 10:46:29;;;;;;;1999.90;999.90;;;23.80;99.90;;;;;;5064436;28;20020;-72
2023/01/13 10:48:58;;;;;;;1999.90;999.90;;;23.70;99.90;;;;;;5056807;28;20113;-72
2023/01/13 10:51:29;;;;;;;1999.90;999.90;;;23.70;99.90;;;;;;5052679;28;20043;-72
2023/01/13 10:54:23;;;;;;;1999.90;999.90;;;23.60;99.90;;;;;;5041551;28;20039;-72
2023/01/13 10:57:23;;;;;;;1999.90;999.90;;;23.60;99.90;;;;;;5045655;28;20490;-72
2023/01/13 11:00:01;;;;;;;1999.90;999.90;;;23.60;99.90;;;;;;5058217;28;20047;-73
2023/01/13 11:02:31;;;;;;;1999.90;999.90;;;23.70;99.90;;;;;;5057542;28;20028;-73
2023/01/13 11:05:15;;;;;;;1999.90;999.90;;;23.60;99.90;;;;;;5051746;28;20037;-72
2023/01/13 11:07:55;;;;;;;1999.90;999.90;;;23.60;99.90;;;;;;5052706;28;20025;-73
2023/01/13 11:10:28;;;;;;;1999.90;999.90;;;23.60;99.90;;;;;;5064203;28;20025;-74
2023/01/13 11:13:14;;;;;;;1999.90;999.90;;;23.60;99.90;;;;;;5053222;28;20040;-73
2023/01/13 11:15:44;;;;;;;1999.90;999.90;;;23.50;99.90;;;;;;5071356;28;20024;-72
2023/01/13 11:18:15;;;;;;;1999.90;999.90;;;23.40;99.90;;;;;;5062661;28;20013;-72
2023/01/13 11:20:45;;;;;;;1999.90;999.90;;;23.40;99.90;;;;;;5063258;28;20028;-72
2023/01/13 11:23:33;;;;;;;1999.90;999.90;;;23.30;99.90;;;;;;5060155;28;20021;-72
2023/01/13 11:26:26;;;;;;;1999.90;999.90;;;23.30;99.90;;;;;;5051280;28;20033;-72
2023/01/13 11:29:38;;;;;;;1999.90;999.90;;;23.30;99.90;;;;;;5052502;28;20124;-71
2023/01/13 11:32:35;;;;;;;1999.90;999.90;;;23.20;99.90;;;;;;5038405;28;20085;-71
2023/01/13 11:35:14;;;;;;;1999.90;999.90;;;23.10;99.90;;;;;;5051032;28;20075;-72
2023/01/13 11:37:49;;;;;;;1999.90;999.90;;;23.10;99.90;;;;;;5068505;28;20032;-76
2023/01/13 11:40:32;;;;;;;1999.90;999.90;;;23.00;99.90;;;;;;5065828;28;20029;-73
2023/01/13 11:43:34;;;;;;;1999.90;999.90;;;23.00;99.90;;;;;;5051451;28;20131;-74
2023/01/13 11:46:02;;;;;;;1999.90;999.90;;;23.00;99.90;;;;;;5030815;28;20540;-74
2023/01/13 11:48:40;;;;;;;1999.90;999.90;;;23.00;99.90;;;;;;5048197;28;20028;-73
2023/01/13 11:51:45;;;;;;;1999.90;999.90;;;23.00;99.90;;;;;;5050489;28;20056;-76
2023/01/13 11:54:36;;;;;;;1999.90;999.90;;;23.00;99.90;;;;;;5056611;28;20040;-72
2023/01/13 11:57:23;;;;;;;1999.90;999.90;;;23.00;99.90;;;;;;5054596;28;20017;-73
2023/01/13 12:00:12;;;;;;;1999.90;999.90;;;23.00;99.90;;;;;;5057790;28;20078;-72
2023/01/13 12:03:12;;;;;;;1999.90;999.90;;;23.00;99.90;;;;;;5069437;28;20536;-73
2023/01/13 12:06:16;;;;;;;1999.90;999.90;;;22.90;99.90;;;;;;5032591;28;20152;-72
2023/01/13 12:09:03;;;;;;;1999.90;999.90;;;22.90;99.90;;;;;;5049276;28;20112;-71
2023/01/13 12:12:21;;;;;;;1999.90;999.90;;;22.90;99.90;;;;;;5030843;28;20072;-71
2023/01/13 12:15:07;;;;;;;1999.90;999.90;;;22.90;99.90;;;;;;5054313;28;20372;-71
2023/01/13 12:18:01;;;;;;;1999.90;999.90;;;22.80;99.90;;;;;;5072016;28;20028;-71
2023/01/13 12:20:46;;;;;;;1999.90;999.90;;;22.80;99.90;;;;;;5053114;28;20068;-72
2023/01/13 12:23:21;;;;;;;1999.90;999.90;;;22.70;99.90;;;;;;5051681;28;20119;-71
2023/01/13 12:25:55;;;;;;;1999.90;999.90;;;22.70;99.90;;;;;;5061519;28;20129;-70
2023/01/13 12:28:37;;;;;;;1999.90;999.90;;;22.60;99.90;;;;;;5058739;28;20119;-71
2023/01/13 12:31:06;;;;;;;1999.90;999.90;;;22.60;99.90;;;;;;5047665;28;20041;-72
2023/01/13 12:34:09;;;;;;;1999.90;999.90;;;22.50;99.90;;;;;;5049022;28;20036;-73
2023/01/13 12:37:00;;;;;;;1999.90;999.90;;;22.50;99.90;;;;;;5051254;28;20021;-70
2023/01/13 12:39:43;;;;;;;1999.90;999.90;;;22.40;99.90;;;;;;5057377;28;20021;-73
2023/01/13 12:45:12;;;;;;;1999.90;999.90;;;22.30;99.90;;;;;;5061803;28;20572;-74
2023/01/13 12:47:50;;;;;;;1999.90;999.90;;;22.30;99.90;;;;;;5050498;28;20059;-75
2023/01/13 12:50:26;;;;;;;1999.90;999.90;;;22.20;99.90;;;;;;5033179;28;20033;-72
2023/01/13 12:52:56;;;;;;;1999.90;999.90;;;22.20;99.90;;;;;;5052945;28;20393;-73
2023/01/13 12:55:27;;;;;;;1999.90;999.90;;;22.20;99.90;;;;;;5050210;28;20028;-74
2023/01/13 12:57:59;;;;;;;1999.90;999.90;;;22.10;99.90;;;;;;5046540;28;20060;-70
2023/01/13 13:00:40;;;;;;;1999.90;999.90;;;22.00;99.90;;;;;;5044431;28;20035;-70
2023/01/13 13:03:18;;;;;;;1999.90;999.90;;;22.00;99.90;;;;;;5047206;28;20108;-71
2023/01/13 13:06:16;;;;;;;1999.90;999.90;;;22.00;99.90;;;;;;5050203;28;20688;-71
2023/01/13 13:08:58;;;;;;;1999.90;999.90;;;22.00;99.90;;;;;;5055453;28;20029;-71
2023/01/13 13:14:40;;;;;;;1999.90;999.90;;;21.90;99.90;;;;;;5057477;28;20043;-73
2023/01/13 13:17:19;;;;;;;;;;;21.90;99.90;;;;;;5048027;28;20031;-71
2023/01/13 13:19:48;;;;;;;1999.90;999.90;;;21.90;99.90;;;;;;5051001;28;19917;-70